createdAt,value
2018-11-10T00:00:18.705Z,104.50
2018-11-10T00:02:48.606Z,112.43
2018-11-10T00:05:18.516Z,126.13
2018-11-10T00:07:47.421Z,117.20
2018-11-10T00:10:17.091Z,102.70
2018-11-10T00:12:46.378Z,113.97
2018-11-10T00:15:15.293Z,119.87
2018-11-10T00:17:44.158Z,122.43
2018-11-10T00:20:13.003Z,123.93
2018-11-10T00:22:42.142Z,108.93
2018-11-10T00:25:12.176Z,121.10
2018-11-10T00:27:41.987Z,112.43
2018-11-10T00:30:12.422Z,118.97
2018-11-10T00:32:41.811Z,125.57
2018-11-10T00:35:10.679Z,123.93
2018-11-10T00:37:39.650Z,100.43
2018-11-10T00:40:11.091Z,124.50
2018-11-10T00:42:40.143Z,118.03
2018-11-10T00:45:09.113Z,115.23
2018-11-10T00:47:38.331Z,114.43
2018-11-10T00:50:08.031Z,111.93
2018-11-10T00:52:37.012Z,106.57
2018-11-10T00:55:05.970Z,106.57
2018-11-10T00:57:34.843Z,106.33
2018-11-10T01:00:03.970Z,115.83
2018-11-10T01:02:32.899Z,111.90
2018-11-10T01:05:01.728Z,112.40
2018-11-10T01:07:30.606Z,116.67
2018-11-10T01:09:59.486Z,99.67
2018-11-10T01:12:28.827Z,112.90
2018-11-10T01:14:58.487Z,104.70
2018-11-10T01:17:27.273Z,104.90
2018-11-10T01:19:56.111Z,98.17
2018-11-10T01:22:24.970Z,97.03
2018-11-10T01:24:53.794Z,106.47
2018-11-10T01:27:22.711Z,86.30
2018-11-10T01:29:51.559Z,98.60
2018-11-10T01:32:20.382Z,81.37
2018-11-10T01:34:49.187Z,95.97
2018-11-10T01:37:18.022Z,100.83
2018-11-10T01:39:46.822Z,90.33
2018-11-10T01:42:15.674Z,87.90
2018-11-10T01:44:44.499Z,94.87
2018-11-10T01:47:13.628Z,95.00
2018-11-10T01:49:42.850Z,84.40
2018-11-10T01:52:11.678Z,90.00
2018-11-10T01:54:40.535Z,79.40
2018-11-10T01:57:09.377Z,89.60
2018-11-10T01:59:38.210Z,82.60
2018-11-10T02:02:07.069Z,84.23
2018-11-10T02:04:35.923Z,83.47
2018-11-10T02:07:04.931Z,91.43
2018-11-10T02:09:33.818Z,89.77
2018-11-10T02:12:02.631Z,90.07
2018-11-10T02:14:31.486Z,84.03
2018-11-10T02:17:00.424Z,94.77
2018-11-10T02:19:29.292Z,86.03
2018-11-10T02:21:58.198Z,77.63
2018-11-10T02:24:27.103Z,84.40
2018-11-10T02:26:56.043Z,78.63
2018-11-10T02:29:24.930Z,67.77
2018-11-10T02:31:53.781Z,79.20
2018-11-10T02:34:22.599Z,75.07
2018-11-10T02:36:51.535Z,77.50
2018-11-10T02:39:20.342Z,79.37
2018-11-10T02:41:49.179Z,81.17
2018-11-10T02:44:17.989Z,89.23
2018-11-10T02:46:46.936Z,82.83
2018-11-10T02:49:15.723Z,77.83
2018-11-10T02:51:44.534Z,96.30
2018-11-10T02:54:13.371Z,81.27
2018-11-10T02:56:42.240Z,75.13
2018-11-10T02:59:18.738Z,70.97
2018-11-10T03:01:49.506Z,72.70
2018-11-10T03:04:18.397Z,67.60
2018-11-10T03:06:47.269Z,80.47
2018-11-10T03:09:16.131Z,72.13
2018-11-10T03:11:44.978Z,69.43
2018-11-10T03:14:13.827Z,72.97
2018-11-10T03:16:42.726Z,67.77
2018-11-10T03:19:11.570Z,63.97
2018-11-10T03:21:40.427Z,70.23
2018-11-10T03:24:09.273Z,72.93
2018-11-10T03:26:38.179Z,79.77
2018-11-10T03:29:07.040Z,75.13
2018-11-10T03:31:35.866Z,77.50
2018-11-10T03:34:04.711Z,71.60
2018-11-10T03:36:33.631Z,81.40
2018-11-10T03:39:02.566Z,75.10
2018-11-10T03:41:31.392Z,82.03
2018-11-10T03:44:00.198Z,70.53
2018-11-10T03:46:29.070Z,75.60
2018-11-10T03:48:57.989Z,73.17
2018-11-10T03:51:26.714Z,74.33
2018-11-10T03:53:55.522Z,76.93
2018-11-10T03:56:25.459Z,70.53
2018-11-10T03:58:54.310Z,72.20
2018-11-10T04:01:23.199Z,76.10
2018-11-10T04:03:52.062Z,71.70
2018-11-10T04:06:21.567Z,74.17
2018-11-10T04:08:50.419Z,82.30
2018-11-10T04:11:19.275Z,69.93
2018-11-10T04:13:48.102Z,73.10
2018-11-10T04:16:16.987Z,67.43
2018-11-10T04:18:45.826Z,75.10
2018-11-10T04:21:14.661Z,83.13
2018-11-10T04:23:43.558Z,73.90
2018-11-10T04:26:12.443Z,72.80
2018-11-10T04:28:41.478Z,76.27
2018-11-10T04:31:10.292Z,73.80
2018-11-10T04:33:39.119Z,78.30
2018-11-10T04:36:08.103Z,66.97
2018-11-10T04:38:36.947Z,65.70
2018-11-10T04:41:06.314Z,67.50
2018-11-10T04:43:35.151Z,73.30
2018-11-10T04:46:04.107Z,70.93
2018-11-10T04:48:32.929Z,68.43
2018-11-10T04:51:01.786Z,83.20
2018-11-10T04:53:30.600Z,77.47
2018-11-10T04:55:59.474Z,66.00
2018-11-10T04:58:28.307Z,66.30
2018-11-10T05:00:57.631Z,65.30
2018-11-10T05:03:26.491Z,64.47
2018-11-10T05:05:55.435Z,66.87
2018-11-10T05:08:24.259Z,63.13
2018-11-10T05:10:53.105Z,60.80
2018-11-10T05:13:21.931Z,57.80
2018-11-10T05:15:50.827Z,57.83
2018-11-10T05:18:19.719Z,59.37
2018-11-10T05:20:48.534Z,59.63
2018-11-10T05:23:17.360Z,60.07
2018-11-10T05:25:46.218Z,62.30
2018-11-10T05:28:15.058Z,58.93
2018-11-10T05:30:43.891Z,52.40
2018-11-10T05:33:12.743Z,54.37
2018-11-10T05:35:41.607Z,56.00
2018-11-10T05:38:10.419Z,66.10
2018-11-10T05:40:39.291Z,61.70
2018-11-10T05:43:08.123Z,62.10
2018-11-10T05:45:37.072Z,63.90
2018-11-10T05:48:06.386Z,60.30
2018-11-10T05:50:35.242Z,62.03
2018-11-10T05:53:04.155Z,58.43
2018-11-10T05:55:33.110Z,57.20
2018-11-10T05:58:01.943Z,59.70
2018-11-10T06:00:33.214Z,60.80
2018-11-10T06:03:02.085Z,66.23
2018-11-10T06:05:30.946Z,55.50
2018-11-10T06:07:59.791Z,54.07
2018-11-10T06:10:28.761Z,62.87
2018-11-10T06:12:57.586Z,57.57
2018-11-10T06:15:26.903Z,59.90
2018-11-10T06:17:55.811Z,53.27
2018-11-10T06:20:24.650Z,55.00
2018-11-10T06:22:53.866Z,54.57
2018-11-10T06:25:22.776Z,51.63
2018-11-10T06:27:51.629Z,46.43
2018-11-10T06:30:20.479Z,49.90
2018-11-10T06:32:49.311Z,49.50
2018-11-10T06:35:18.270Z,46.00
2018-11-10T06:37:47.110Z,44.80
2018-11-10T06:40:15.943Z,47.13
2018-11-10T06:42:44.792Z,48.50
2018-11-10T06:45:13.744Z,48.00
2018-11-10T06:47:42.578Z,42.40
2018-11-10T06:50:11.756Z,47.53
2018-11-10T06:52:40.622Z,44.73
2018-11-10T06:55:10.331Z,46.47
2018-11-10T06:57:39.243Z,48.57
2018-11-10T07:00:15.367Z,48.27
2018-11-10T07:02:44.287Z,51.70
2018-11-10T07:05:13.363Z,44.13
2018-11-10T07:07:42.295Z,46.93
2018-11-10T07:10:11.583Z,42.27
2018-11-10T07:12:40.507Z,39.80
2018-11-10T07:15:09.981Z,40.30
2018-11-10T07:17:39.260Z,38.90
2018-11-10T07:20:08.271Z,37.77
2018-11-10T07:22:37.228Z,36.70
2018-11-10T07:25:06.870Z,37.90
2018-11-10T07:27:36.009Z,37.10
2018-11-10T07:30:07.907Z,36.13
2018-11-10T07:32:37.116Z,39.53
2018-11-10T07:35:07.204Z,36.70
2018-11-10T07:37:36.732Z,49.67
2018-11-10T07:40:08.874Z,40.97
2018-11-10T07:42:38.035Z,38.83
2018-11-10T07:45:10.168Z,38.40
2018-11-10T07:47:39.091Z,36.13
2018-11-10T07:50:09.611Z,44.10
2018-11-10T07:52:38.887Z,43.10
2018-11-10T07:55:09.223Z,41.97
2018-11-10T07:57:38.075Z,37.80
2018-11-10T08:00:15.817Z,38.43
2018-11-10T08:02:45.100Z,38.83
2018-11-10T08:05:15.186Z,40.10
2018-11-10T08:07:44.716Z,39.20
2018-11-10T08:10:14.461Z,39.53
2018-11-10T08:12:43.471Z,40.47
2018-11-10T08:15:13.640Z,39.00
2018-11-10T08:17:42.816Z,36.30
2018-11-10T08:20:12.216Z,38.63
2018-11-10T08:22:41.130Z,36.50
2018-11-10T08:25:12.195Z,37.63
2018-11-10T08:27:41.060Z,33.03
2018-11-10T08:30:11.809Z,32.90
2018-11-10T08:32:41.554Z,31.63
2018-11-10T08:39:11.090Z,33.53
2018-11-10T08:41:40.205Z,30.63
2018-11-10T08:44:09.405Z,30.97
2018-11-10T08:46:41.556Z,29.40
2018-11-10T08:49:11.098Z,24.97
2018-11-10T08:51:40.501Z,24.27
2018-11-10T08:54:10.733Z,30.73
2018-11-10T08:56:40.342Z,30.97
2018-11-10T08:59:14.094Z,27.63
2018-11-10T09:01:42.901Z,22.33
2018-11-10T09:04:11.755Z,24.73
2018-11-10T09:06:40.719Z,27.60
2018-11-10T09:09:10.334Z,27.00
2018-11-10T09:11:39.206Z,30.80
2018-11-10T09:14:08.311Z,23.43
2018-11-10T09:16:37.235Z,26.23
2018-11-10T09:19:06.095Z,26.23
2018-11-10T09:21:35.027Z,27.47
2018-11-10T09:24:03.907Z,27.50
2018-11-10T09:26:33.687Z,26.57
2018-11-10T09:29:02.545Z,27.20
2018-11-10T09:31:31.451Z,26.50
2018-11-10T09:34:00.484Z,31.00
2018-11-10T09:36:29.530Z,31.13
2018-11-10T09:38:58.327Z,31.67
2018-11-10T09:41:27.219Z,28.17
2018-11-10T09:43:56.735Z,26.93
2018-11-10T09:46:25.635Z,34.80
2018-11-10T09:48:54.515Z,31.80
2018-11-10T09:51:23.372Z,33.00
2018-11-10T09:53:52.260Z,35.33
2018-11-10T09:56:21.195Z,29.43
2018-11-10T09:58:50.035Z,27.93
2018-11-10T10:01:18.995Z,25.20
2018-11-10T10:03:47.850Z,27.77
2018-11-10T10:06:16.743Z,29.03
2018-11-10T10:08:46.423Z,34.73
2018-11-10T10:11:15.937Z,31.60
2018-11-10T10:13:44.787Z,30.00
2018-11-10T10:16:13.850Z,26.97
2018-11-10T10:18:42.634Z,26.03
2018-11-10T10:21:11.520Z,27.73
2018-11-10T10:23:40.354Z,31.60
2018-11-10T10:26:09.423Z,28.33
2018-11-10T10:28:38.411Z,27.33
2018-11-10T10:31:07.260Z,25.50
2018-11-10T10:33:37.128Z,24.10
2018-11-10T10:36:06.046Z,28.50
2018-11-10T10:38:34.959Z,29.87
2018-11-10T10:41:03.935Z,28.00
2018-11-10T10:43:32.799Z,25.00
2018-11-10T10:46:01.788Z,31.93
2018-11-10T10:48:30.705Z,31.23
2018-11-10T10:50:59.547Z,32.57
2018-11-10T10:53:28.384Z,30.60
2018-11-10T10:55:57.387Z,24.33
2018-11-10T10:58:26.243Z,28.20
2018-11-10T11:01:00.811Z,33.40
2018-11-10T11:03:35.282Z,25.90
2018-11-10T11:06:04.167Z,28.23
2018-11-10T11:08:33.039Z,28.33
2018-11-10T11:11:01.919Z,27.40
2018-11-10T11:13:30.752Z,29.83
2018-11-10T11:15:59.624Z,28.60
2018-11-10T11:18:28.479Z,28.87
2018-11-10T11:20:57.334Z,26.60
2018-11-10T11:23:26.191Z,24.20
2018-11-10T11:25:55.048Z,25.70
2018-11-10T11:28:23.899Z,26.37
2018-11-10T11:30:52.745Z,26.67
2018-11-10T11:33:21.668Z,25.43
2018-11-10T11:35:50.900Z,29.67
2018-11-10T11:38:19.889Z,24.10
2018-11-10T11:40:48.801Z,24.20
2018-11-10T11:43:17.768Z,28.73
2018-11-10T11:45:47.002Z,25.40
2018-11-10T11:48:15.989Z,30.60
2018-11-10T11:50:45.206Z,24.23
2018-11-10T11:53:14.436Z,22.80
2018-11-10T11:55:43.713Z,25.50
2018-11-10T11:58:13.143Z,23.60
2018-11-10T12:00:42.116Z,26.70
2018-11-10T12:03:11.027Z,22.67
2018-11-10T12:05:40.052Z,26.67
2018-11-10T12:08:09.229Z,22.40
2018-11-10T12:10:38.511Z,22.20
2018-11-10T12:13:07.615Z,19.97
2018-11-10T12:15:40.500Z,18.70
2018-11-10T12:18:09.937Z,16.17
2018-11-10T12:20:38.959Z,21.40
2018-11-10T12:23:08.031Z,22.33
2018-11-10T12:25:37.576Z,16.57
2018-11-10T12:28:06.613Z,13.90
2018-11-10T12:30:35.798Z,16.27
2018-11-10T12:33:05.064Z,15.47
2018-11-10T12:35:34.473Z,15.67
2018-11-10T12:38:03.731Z,13.23
2018-11-10T12:40:32.947Z,15.47
2018-11-10T12:43:01.957Z,16.23
2018-11-10T12:45:31.089Z,14.27
2018-11-10T12:48:00.284Z,14.37
2018-11-10T12:50:29.286Z,12.83
2018-11-10T12:52:58.122Z,11.97
2018-11-10T12:55:27.016Z,14.13
2018-11-10T12:57:55.869Z,14.53
2018-11-10T13:00:31.450Z,13.67
2018-11-10T13:03:00.312Z,12.67
2018-11-10T13:05:29.339Z,12.70
2018-11-10T13:07:58.235Z,12.30
2018-11-10T13:10:27.089Z,13.17
2018-11-10T13:12:56.104Z,12.57
2018-11-10T13:15:24.995Z,14.20
2018-11-10T13:17:53.823Z,13.67
2018-11-10T13:20:22.705Z,13.00
2018-11-10T13:22:51.568Z,14.43
2018-11-10T13:25:20.443Z,13.80
2018-11-10T13:27:49.296Z,14.40
2018-11-10T13:30:18.127Z,12.83
2018-11-10T13:32:46.968Z,12.70
2018-11-10T13:35:15.809Z,12.23
2018-11-10T13:37:44.657Z,13.47
2018-11-10T13:40:13.510Z,13.97
2018-11-10T13:42:42.373Z,16.13
2018-11-10T13:45:12.627Z,14.20
2018-11-10T13:47:41.979Z,16.10
2018-11-10T13:50:12.080Z,14.70
2018-11-10T13:52:42.325Z,12.43
2018-11-10T13:55:11.919Z,17.83
2018-11-10T13:57:41.099Z,12.50
2018-11-10T14:00:17.666Z,12.53
2018-11-10T14:02:47.163Z,12.43
2018-11-10T14:05:16.520Z,12.83
2018-11-10T14:07:45.803Z,13.17
2018-11-10T14:10:15.514Z,13.07
2018-11-10T14:12:51.352Z,11.60
2018-11-10T14:15:20.416Z,13.17
2018-11-10T14:17:49.541Z,14.50
2018-11-10T14:20:18.518Z,13.97
2018-11-10T14:22:48.503Z,14.70
2018-11-10T14:25:17.924Z,12.40
2018-11-10T14:27:46.841Z,14.77
2018-11-10T14:30:17.208Z,12.73
2018-11-10T14:32:46.723Z,15.13
2018-11-10T14:35:15.659Z,14.90
2018-11-10T14:37:44.527Z,14.63
2018-11-10T14:40:15.072Z,12.43
2018-11-10T14:42:44.355Z,12.43
2018-11-10T14:45:15.210Z,14.53
2018-11-10T14:47:44.614Z,13.43
2018-11-10T14:50:14.658Z,14.20
2018-11-10T14:52:43.929Z,13.90
2018-11-10T14:55:14.381Z,12.53
2018-11-10T14:57:43.435Z,13.73
2018-11-10T15:00:18.246Z,13.53
2018-11-10T15:02:48.126Z,12.97
2018-11-10T15:05:19.159Z,13.00
2018-11-10T15:07:48.099Z,14.00
2018-11-10T15:10:17.622Z,13.37
2018-11-10T15:12:47.115Z,11.90
2018-11-10T15:15:17.840Z,12.20
2018-11-10T15:17:47.091Z,10.67
2018-11-10T15:20:17.436Z,12.70
2018-11-10T15:22:46.489Z,10.43
2018-11-10T15:25:16.830Z,12.50
2018-11-10T15:27:45.662Z,11.47
2018-11-10T15:30:16.678Z,14.90
2018-11-10T15:32:46.236Z,14.40
2018-11-10T15:35:16.359Z,12.10
2018-11-10T15:37:46.479Z,10.63
2018-11-10T15:40:27.235Z,17.37
2018-11-10T15:42:56.092Z,12.97
2018-11-10T15:45:24.991Z,13.93
2018-11-10T15:47:53.857Z,15.00
2018-11-10T15:50:22.797Z,13.33
2018-11-10T15:52:51.596Z,13.10
2018-11-10T15:55:20.446Z,15.03
2018-11-10T15:57:49.343Z,14.03
2018-11-10T16:00:19.652Z,15.07
2018-11-10T16:02:48.502Z,13.73
2018-11-10T16:05:17.363Z,13.27
2018-11-10T16:07:46.234Z,13.87
2018-11-10T16:10:15.186Z,13.30
2018-11-10T16:12:43.995Z,16.10
2018-11-10T16:15:14.258Z,14.93
2018-11-10T16:17:43.614Z,16.83
2018-11-10T16:20:15.728Z,18.77
2018-11-10T16:22:46.894Z,19.30
2018-11-10T16:25:16.226Z,15.50
2018-11-10T16:27:45.441Z,19.17
2018-11-10T16:30:15.487Z,16.03
2018-11-10T16:32:44.612Z,21.27
2018-11-10T16:35:13.512Z,18.57
2018-11-10T16:37:42.371Z,19.60
2018-11-10T16:40:14.496Z,17.77
2018-11-10T16:42:44.372Z,24.27
2018-11-10T16:45:13.952Z,20.67
2018-11-10T16:47:42.817Z,24.17
2018-11-10T16:50:11.659Z,21.77
2018-11-10T16:52:41.559Z,20.57
2018-11-10T16:55:10.551Z,21.93
2018-11-10T16:57:39.537Z,21.07
2018-11-10T17:00:18.535Z,22.77
2018-11-10T17:02:47.427Z,21.90
2018-11-10T17:05:16.772Z,21.23
2018-11-10T17:07:45.770Z,21.77
2018-11-10T17:10:16.099Z,20.37
2018-11-10T17:12:44.971Z,20.20
2018-11-10T17:15:14.001Z,19.17
2018-11-10T17:17:42.838Z,19.57
2018-11-10T17:20:13.919Z,21.90
2018-11-10T17:22:43.383Z,19.57
2018-11-10T17:25:13.237Z,20.87
2018-11-10T17:27:42.749Z,19.70
2018-11-10T17:30:14.617Z,19.43
2018-11-10T17:32:43.691Z,21.60
2018-11-10T17:35:13.003Z,21.87
2018-11-10T17:37:42.573Z,20.40
2018-11-10T17:40:18.286Z,21.07
2018-11-10T17:42:47.128Z,20.13
2018-11-10T17:45:17.339Z,24.03
2018-11-10T17:47:46.691Z,20.70
2018-11-10T17:50:16.663Z,22.03
2018-11-10T17:52:45.626Z,18.93
2018-11-10T17:55:15.562Z,21.10
2018-11-10T17:57:44.954Z,24.87
2018-11-10T18:00:15.144Z,24.43
2018-11-10T18:02:45.040Z,24.50
2018-11-10T18:05:15.035Z,26.43
2018-11-10T18:07:44.107Z,22.40
2018-11-10T18:10:14.438Z,26.50
2018-11-10T18:12:44.167Z,24.37
2018-11-10T18:15:13.956Z,22.97
2018-11-10T18:17:43.414Z,24.93
2018-11-10T18:20:13.712Z,26.30
2018-11-10T18:22:43.727Z,29.47
2018-11-10T18:25:13.030Z,23.07
2018-11-10T18:27:42.751Z,21.43
2018-11-10T18:30:13.351Z,22.90
2018-11-10T18:32:42.771Z,23.13
2018-11-10T18:35:12.883Z,24.80
2018-11-10T18:37:42.257Z,27.43
2018-11-10T18:40:11.677Z,24.53
2018-11-10T18:42:40.806Z,24.03
2018-11-10T18:45:10.876Z,24.03
2018-11-10T18:47:41.589Z,24.27
2018-11-10T18:50:14.360Z,24.23
2018-11-10T18:52:43.956Z,26.60
2018-11-10T18:55:14.161Z,25.73
2018-11-10T18:57:43.640Z,29.30
2018-11-10T19:00:15.702Z,26.20
2018-11-10T19:02:45.320Z,27.87
2018-11-10T19:05:16.246Z,29.80
2018-11-10T19:07:45.449Z,28.90
2018-11-10T19:10:15.936Z,31.70
2018-11-10T19:12:44.952Z,27.70
2018-11-10T19:15:18.426Z,24.70
2018-11-10T19:17:47.366Z,27.23
2018-11-10T19:20:17.487Z,25.13
2018-11-10T19:22:46.776Z,27.13
2018-11-10T19:25:15.687Z,29.23
2018-11-10T19:27:44.591Z,28.00
2018-11-10T19:30:14.796Z,29.63
2018-11-10T19:32:44.391Z,28.40
2018-11-10T19:35:13.926Z,32.40
2018-11-10T19:37:43.092Z,30.50
2018-11-10T19:40:12.335Z,30.07
2018-11-10T19:42:42.414Z,26.43
2018-11-10T19:45:12.045Z,26.40
2018-11-10T19:47:42.136Z,25.97
2018-11-10T19:50:11.829Z,26.43
2018-11-10T19:52:40.747Z,24.07
2018-11-10T19:55:14.567Z,26.00
2018-11-10T19:57:43.571Z,29.03
2018-11-10T20:00:27.376Z,24.60
2018-11-10T20:02:58.141Z,27.03
2018-11-10T20:05:27.078Z,26.27
2018-11-10T20:07:55.951Z,26.60
2018-11-10T20:10:24.843Z,27.40
2018-11-10T20:12:53.743Z,26.80
2018-11-10T20:15:22.651Z,31.47
2018-11-10T20:17:51.539Z,25.17
2018-11-10T20:20:20.420Z,24.67
2018-11-10T20:22:49.308Z,25.03
2018-11-10T20:25:18.840Z,30.10
2018-11-10T20:27:47.727Z,28.87
2018-11-10T20:30:17.971Z,26.90
2018-11-10T20:32:47.091Z,27.90
2018-11-10T20:35:15.951Z,26.10
2018-11-10T20:37:45.444Z,25.90
2018-11-10T20:40:15.177Z,27.53
2018-11-10T20:42:44.019Z,25.10
2018-11-10T20:45:16.426Z,23.93
2018-11-10T20:47:45.288Z,28.17
2018-11-10T20:50:14.643Z,24.57
2018-11-10T20:52:43.491Z,28.27
2018-11-10T20:55:12.851Z,22.37
2018-11-10T20:57:48.628Z,26.03
2018-11-10T21:00:26.609Z,28.47
2018-11-10T21:02:57.688Z,24.63
2018-11-10T21:05:26.588Z,24.70
2018-11-10T21:07:55.435Z,25.40
2018-11-10T21:10:24.311Z,26.80
2018-11-10T21:12:53.176Z,27.70
2018-11-10T21:15:22.167Z,29.57
2018-11-10T21:17:51.011Z,26.03
2018-11-10T21:20:19.976Z,27.70
2018-11-10T21:22:48.759Z,25.57
2018-11-10T21:25:18.031Z,28.30
2018-11-10T21:27:47.333Z,26.70
2018-11-10T21:30:17.547Z,24.87
2018-11-10T21:32:46.960Z,24.87
2018-11-10T21:35:16.004Z,25.77
2018-11-10T21:37:44.775Z,26.60
2018-11-10T21:40:15.870Z,24.83
2018-11-10T21:42:44.814Z,23.40
2018-11-10T21:45:14.497Z,22.87
2018-11-10T21:47:43.701Z,25.23
2018-11-10T21:50:13.903Z,24.57
2018-11-10T21:52:43.499Z,24.57
2018-11-10T21:55:13.736Z,24.03
2018-11-10T21:57:43.359Z,23.93
2018-11-10T22:00:16.616Z,23.33
2018-11-10T22:02:46.179Z,25.37
2018-11-10T22:05:15.101Z,20.57
2018-11-10T22:07:44.463Z,22.80
2018-11-10T22:10:14.609Z,23.37
2018-11-10T22:12:43.748Z,21.90
2018-11-10T22:15:15.954Z,22.13
2018-11-10T22:17:45.314Z,19.47
2018-11-10T22:20:15.460Z,24.07
2018-11-10T22:22:44.399Z,19.27
2018-11-10T22:25:13.728Z,20.87
2018-11-10T22:27:44.073Z,19.07
2018-11-10T22:30:14.079Z,18.60
2018-11-10T22:32:43.483Z,19.13
2018-11-10T22:35:12.419Z,24.80
2018-11-10T22:37:41.288Z,18.90
2018-11-10T22:40:12.191Z,21.20
2018-11-10T22:42:41.496Z,18.40
2018-11-10T22:45:12.119Z,17.70
2018-11-10T22:47:41.460Z,18.30
2018-11-10T22:50:14.049Z,18.63
2018-11-10T22:52:43.279Z,23.63
2018-11-10T22:55:12.180Z,20.00
2018-11-10T22:57:41.294Z,20.90
2018-11-10T23:00:17.192Z,18.33
2018-11-10T23:02:49.524Z,22.17
2018-11-10T23:05:18.935Z,18.13
2018-11-10T23:07:47.795Z,18.30
2018-11-10T23:10:17.220Z,19.73
2018-11-10T23:12:47.131Z,20.37
2018-11-10T23:15:16.026Z,20.23
2018-11-10T23:17:44.933Z,15.70
2018-11-10T23:20:16.139Z,17.97
2018-11-10T23:22:45.572Z,21.00
2018-11-10T23:25:15.808Z,23.23
2018-11-10T23:27:44.666Z,23.70
2018-11-10T23:30:17.059Z,19.40
2018-11-10T23:32:45.975Z,19.97
2018-11-10T23:35:14.859Z,19.10
2018-11-10T23:37:43.738Z,20.67
2018-11-10T23:40:13.942Z,19.10
2018-11-10T23:42:43.142Z,19.00
2018-11-10T23:45:12.748Z,17.67
2018-11-10T23:47:41.679Z,25.13
2018-11-10T23:50:13.214Z,19.83
2018-11-10T23:52:42.080Z,21.10
2018-11-10T23:55:11.771Z,16.87
2018-11-10T23:57:40.687Z,20.07
